Terminal Aerodrome Forecast
Issued by NWS

Home | Current Version | Previous Version | Text Only | Print | Product List | Glossary On
Versions: 1 2 3 4 5 6 7 8 9 10 11 12 13 14 15 16 17
000
FTUS42 KTBW 082322
TAFLAL
TAF
KLAL 082322Z 0900/0924 35007KT P6SM BKN100 OVC150
     FM090600 02009KT P6SM VCSH SCT050 BKN080 OVC120
     FM091500 01011KT P6SM VCSH SCT050 BKN100 OVC150
     FM091900 03011KT P6SM SCT100 BKN250=

USA.gov is the U.S. government's official web portal to all federal, state and local government web resources and services.